Time;durP1;ratioP1;P1;durP2;ratioP2;P2;SDS_P1;SDS_P2;PMS_P1;PMS_P2;Temp;Humidity;BMP_temperature;BMP_pressure;BME280_temperature;BME280_humidity;BME280_pressure;Samples;Min_cycle;Max_cycle;Signal;HPM_P1;HPM_P2
2023/12/30 00:02:26;;;;;;;1.40;1.30;;;5.70;99.90;4.90;98872;;;;581324;243;24091;-79
2023/12/30 00:04:55;;;;;;;2.43;1.63;;;5.80;99.90;4.90;98875;;;;582472;246;24097;-79
2023/12/30 00:07:23;;;;;;;1.20;1.13;;;5.70;99.90;4.90;98877;;;;581844;246;24088;-82
2023/12/30 00:09:51;;;;;;;1.63;1.20;;;5.70;99.90;4.90;98866;;;;581854;246;24078;-83
2023/12/30 00:12:18;;;;;;;3.97;1.47;;;5.70;99.90;4.90;98884;;;;582425;246;24096;-81
2023/12/30 00:14:46;;;;;;;1.13;1.00;;;5.80;99.90;4.90;98875;;;;582426;246;24088;-81
2023/12/30 00:17:14;;;;;;;3.97;1.10;;;5.80;99.90;5.00;98863;;;;582465;243;24113;-82
2023/12/30 00:19:44;;;;;;;0.83;0.83;;;5.80;99.90;5.00;98865;;;;583632;245;24123;-83
2023/12/30 00:22:10;;;;;;;5.87;1.13;;;5.80;99.90;5.00;98871;;;;573326;246;24090;-82
2023/12/30 00:24:38;;;;;;;1.20;1.10;;;5.90;99.90;5.00;98864;;;;582728;246;24094;-81
2023/12/30 00:27:06;;;;;;;1.37;1.27;;;5.90;99.90;5.10;98854;;;;582743;246;25138;-78
2023/12/30 00:29:34;;;;;;;11.93;1.70;;;5.90;99.90;5.10;98856;;;;582235;244;24100;-79
2023/12/30 00:32:03;;;;;;;3.53;1.57;;;5.90;99.90;5.10;98860;;;;573902;245;24138;-77
2023/12/30 00:34:30;;;;;;;0.97;0.97;;;6.00;99.90;5.20;98866;;;;582316;242;25176;-79
2023/12/30 00:36:57;;;;;;;2.97;1.50;;;6.00;99.90;5.20;98871;;;;573407;246;24099;-80
2023/12/30 00:39:25;;;;;;;2.83;1.20;;;6.00;99.90;5.20;98868;;;;582378;246;24082;-78
2023/12/30 00:41:54;;;;;;;3.80;1.30;;;6.10;99.90;5.20;98857;;;;582656;246;24115;-78
2023/12/30 00:44:23;;;;;;;2.00;1.23;;;6.10;99.90;5.30;98865;;;;582179;246;24176;-79
2023/12/30 00:46:50;;;;;;;3.73;1.23;;;6.10;99.90;5.30;98856;;;;582714;246;24087;-79
2023/12/30 00:49:18;;;;;;;7.60;1.13;;;6.10;99.90;5.30;98860;;;;582705;246;24105;-78
2023/12/30 00:51:46;;;;;;;0.87;0.87;;;6.20;99.90;5.40;98850;;;;582053;243;24091;-79
2023/12/30 00:54:14;;;;;;;1.50;1.20;;;6.20;99.90;5.40;98847;;;;581971;245;24118;-82
2023/12/30 00:56:41;;;;;;;0.80;0.80;;;6.20;99.90;5.40;98840;;;;582200;246;24095;-83
2023/12/30 00:59:10;;;;;;;2.10;1.13;;;6.20;99.90;5.40;98840;;;;582076;242;24119;-81
2023/12/30 01:01:38;;;;;;;1.00;0.80;;;6.20;99.90;5.40;98839;;;;582006;243;24111;-80
2023/12/30 01:04:06;;;;;;;0.80;0.67;;;6.30;99.90;5.50;98841;;;;573396;246;24102;-79
2023/12/30 01:06:34;;;;;;;4.80;1.33;;;6.30;99.90;5.50;98840;;;;581499;246;24088;-81
2023/12/30 01:09:02;;;;;;;2.23;1.10;;;6.30;99.90;5.50;98849;;;;582478;246;24086;-80
2023/12/30 01:11:30;;;;;;;1.83;1.33;;;6.30;99.90;5.50;98854;;;;582255;246;24101;-77
2023/12/30 01:13:57;;;;;;;3.43;0.90;;;6.30;99.90;5.50;98859;;;;582219;246;24169;-79
2023/12/30 01:16:25;;;;;;;3.20;1.50;;;6.40;99.90;5.50;98846;;;;582628;242;24105;-80
2023/12/30 01:18:54;;;;;;;2.13;0.80;;;6.40;99.90;5.50;98853;;;;582408;246;24147;-79
2023/12/30 01:21:22;;;;;;;4.20;1.10;;;6.40;99.90;5.50;98855;;;;582231;246;24100;-80
2023/12/30 01:23:50;;;;;;;2.57;1.17;;;6.40;99.90;5.50;98852;;;;582279;242;24081;-81
2023/12/30 01:26:18;;;;;;;1.63;1.00;;;6.40;99.90;5.50;98848;;;;576963;245;24086;-81
2023/12/30 01:28:46;;;;;;;1.83;0.73;;;6.40;99.90;5.60;98844;;;;582095;246;24089;-82
2023/12/30 01:31:16;;;;;;;1.53;1.03;;;6.40;99.90;5.60;98839;;;;583111;242;24142;-79
2023/12/30 01:33:45;;;;;;;4.27;1.40;;;6.40;99.90;5.50;98851;;;;573725;246;24122;-82
2023/12/30 01:36:09;;;;;;;2.00;0.93;;;6.40;99.90;5.50;98859;;;;573172;246;24114;-79
2023/12/30 01:38:37;;;;;;;2.37;1.13;;;6.40;99.90;5.50;98854;;;;573908;246;24092;-81
2023/12/30 01:41:05;;;;;;;3.83;1.37;;;6.30;99.90;5.50;98845;;;;574152;246;24112;-79
2023/12/30 01:43:33;;;;;;;1.20;1.10;;;6.30;99.90;5.50;98839;;;;582438;246;24082;-77
2023/12/30 01:46:07;;;;;;;0.80;0.80;;;6.30;99.90;5.50;98834;;;;582992;242;24448;-82
2023/12/30 01:48:35;;;;;;;1.07;0.77;;;6.30;99.90;5.50;98842;;;;574079;246;24155;-79
2023/12/30 01:51:03;;;;;;;3.43;1.03;;;6.30;99.90;5.50;98847;;;;573946;246;24151;-79
2023/12/30 01:53:33;;;;;;;1.50;1.17;;;6.30;99.90;5.50;98854;;;;574059;246;24108;-79
2023/12/30 01:56:04;;;;;;;2.23;1.10;;;6.30;99.90;5.60;98851;;;;574231;246;24095;-80
2023/12/30 01:58:29;;;;;;;1.00;0.97;;;6.40;99.90;5.60;98853;;;;583361;246;24105;-78
2023/12/30 02:01:00;;;;;;;1.00;1.00;;;6.40;99.90;5.60;98849;;;;572530;246;24078;-80
2023/12/30 02:03:25;;;;;;;3.93;0.90;;;6.40;99.90;5.60;98862;;;;572857;246;24117;-81
2023/12/30 02:05:53;;;;;;;3.33;0.97;;;6.50;99.90;5.60;98861;;;;582392;246;24180;-79
2023/12/30 02:08:21;;;;;;;1.13;0.83;;;6.50;99.90;5.60;98859;;;;582251;246;24098;-81
2023/12/30 02:10:49;;;;;;;2.77;1.37;;;6.50;99.90;5.60;98856;;;;582227;246;26470;-80
2023/12/30 02:13:17;;;;;;;1.90;1.10;;;6.50;99.90;5.60;98862;;;;581709;245;24101;-79
2023/12/30 02:15:44;;;;;;;2.10;0.90;;;6.40;99.90;5.60;98863;;;;582177;246;24089;-79
2023/12/30 02:18:16;;;;;;;4.33;0.90;;;6.40;99.90;5.60;98853;;;;572956;246;24137;-77
2023/12/30 02:20:41;;;;;;;2.43;1.20;;;6.40;99.90;5.60;98850;;;;572649;246;24115;-78
2023/12/30 02:23:09;;;;;;;1.20;1.00;;;6.50;99.90;5.60;98852;;;;581738;246;24101;-80
2023/12/30 02:25:37;;;;;;;2.47;1.37;;;6.50;99.90;5.70;98850;;;;582344;246;24111;-81
2023/12/30 02:28:05;;;;;;;1.57;1.37;;;6.50;99.90;5.70;98844;;;;582031;242;24247;-79
2023/12/30 02:30:33;;;;;;;5.07;1.40;;;6.50;99.90;5.70;98849;;;;582129;246;25189;-82
2023/12/30 02:33:00;;;;;;;0.97;0.77;;;6.50;99.90;5.80;98834;;;;581683;245;24076;-80
2023/12/30 02:35:28;;;;;;;2.53;1.93;;;6.60;99.90;5.80;98834;;;;576524;246;35155;-80
2023/12/30 02:37:56;;;;;;;5.07;1.87;;;6.60;99.90;5.80;98834;;;;577151;246;35361;-80
2023/12/30 02:40:24;;;;;;;4.65;2.17;;;6.60;99.90;5.80;98834;;;;568427;246;35254;-81
2023/12/30 02:42:52;;;;;;;5.75;2.42;;;6.60;99.90;5.90;98838;;;;578710;245;46172;-81
2023/12/30 02:45:20;;;;;;;4.55;1.90;;;6.70;99.90;5.90;98829;;;;578522;246;35364;-79
2023/12/30 02:47:48;;;;;;;3.37;1.80;;;6.70;99.90;5.80;98833;;;;582680;244;24129;-80
2023/12/30 02:50:16;;;;;;;3.83;1.60;;;6.70;99.90;5.80;98836;;;;582649;244;24094;-80
2023/12/30 02:52:44;;;;;;;6.53;1.57;;;6.70;99.90;5.80;98829;;;;577769;245;24111;-79
2023/12/30 02:55:12;;;;;;;2.80;1.30;;;6.70;99.90;5.80;98831;;;;582909;242;24115;-81
2023/12/30 02:57:40;;;;;;;1.53;0.93;;;6.70;99.90;5.80;98832;;;;582908;242;24082;-82
2023/12/30 03:00:08;;;;;;;1.63;1.53;;;6.70;99.90;5.80;98826;;;;582605;246;24089;-82
2023/12/30 03:02:37;;;;;;;2.77;1.40;;;6.70;99.90;5.80;98826;;;;573406;246;24149;-81
2023/12/30 03:05:05;;;;;;;2.70;1.80;;;6.70;99.90;5.80;98830;;;;582656;246;24143;-80
2023/12/30 03:07:36;;;;;;;2.43;1.33;;;6.70;99.90;5.90;98832;;;;574419;246;27474;-79
2023/12/30 03:10:01;;;;;;;3.20;1.57;;;6.70;99.90;5.90;98830;;;;582734;246;24098;-79
2023/12/30 03:12:28;;;;;;;1.93;1.70;;;6.70;99.90;5.90;98833;;;;582222;246;24087;-80
2023/12/30 03:14:56;;;;;;;2.70;1.43;;;6.70;99.90;5.90;98827;;;;582817;246;24137;-82
2023/12/30 03:17:24;;;;;;;1.87;1.27;;;6.70;99.90;5.90;98825;;;;582885;246;24096;-79
2023/12/30 03:19:52;;;;;;;2.53;1.77;;;6.70;99.90;5.90;98826;;;;582640;246;24101;-79
2023/12/30 03:22:20;;;;;;;7.73;1.80;;;6.70;99.90;5.90;98825;;;;582580;246;24111;-77
2023/12/30 03:24:51;;;;;;;1.77;1.63;;;6.70;99.90;5.90;98817;;;;581964;246;24109;-78
2023/12/30 03:27:16;;;;;;;1.90;1.57;;;6.70;99.90;5.90;98820;;;;572582;246;24120;-78
2023/12/30 03:29:44;;;;;;;3.73;1.73;;;6.70;99.90;5.80;98815;;;;576183;245;35279;-79
2023/12/30 03:32:12;;;;;;;1.33;1.23;;;6.70;99.90;5.80;98812;;;;581817;246;24098;-78
2023/12/30 03:34:39;;;;;;;1.47;1.30;;;6.60;99.90;5.80;98824;;;;577159;245;24180;-79
2023/12/30 03:37:07;;;;;;;1.60;1.27;;;6.70;99.90;5.80;98812;;;;581819;246;26391;-79
2023/12/30 03:39:35;;;;;;;2.23;1.03;;;6.60;99.90;5.80;98826;;;;582140;246;24086;-80
2023/12/30 03:42:07;;;;;;;3.07;1.07;;;6.60;99.90;5.70;98835;;;;581649;246;24124;-80
2023/12/30 03:44:31;;;;;;;3.27;1.20;;;6.60;99.90;5.70;98832;;;;571138;246;24289;-79
2023/12/30 03:47:00;;;;;;;0.90;0.90;;;6.60;99.90;5.80;98834;;;;581692;245;24138;-80
2023/12/30 03:49:28;;;;;;;0.90;0.90;;;6.60;99.90;5.70;98832;;;;582160;246;24084;-80
2023/12/30 03:51:56;;;;;;;1.57;0.90;;;6.60;99.90;5.70;98820;;;;581652;246;24085;-80
2023/12/30 03:54:23;;;;;;;4.43;1.37;;;6.50;99.90;5.70;98838;;;;583400;245;24094;-82
2023/12/30 03:56:51;;;;;;;4.63;1.00;;;6.50;99.90;5.50;98827;;;;583444;246;24451;-80
2023/12/30 03:59:20;;;;;;;0.63;0.63;;;6.30;99.90;5.50;98814;;;;583084;242;24107;-78
2023/12/30 04:01:49;;;;;;;3.07;0.70;;;6.30;99.90;5.40;98822;;;;582092;246;24099;-80
2023/12/30 04:04:17;;;;;;;6.63;1.40;;;6.20;99.90;5.40;98830;;;;582268;246;24107;-80
2023/12/30 04:06:44;;;;;;;5.53;1.10;;;6.20;99.90;5.30;98829;;;;582425;246;24142;-80
2023/12/30 04:09:12;;;;;;;2.80;1.30;;;6.20;99.90;5.30;98844;;;;582451;246;24090;-79
2023/12/30 04:11:40;;;;;;;0.73;0.67;;;6.10;99.90;5.20;98838;;;;582721;246;24095;-78
2023/12/30 04:14:08;;;;;;;0.87;0.87;;;6.00;99.90;5.10;98838;;;;582492;246;24250;-80
2023/12/30 04:16:37;;;;;;;1.50;0.70;;;5.90;99.90;5.10;98838;;;;582553;246;24072;-79
2023/12/30 04:19:05;;;;;;;0.40;0.40;;;5.90;99.90;5.00;98838;;;;582495;242;24079;-79
2023/12/30 04:21:33;;;;;;;1.20;0.93;;;5.80;99.90;4.90;98842;;;;582480;246;24092;-79
2023/12/30 04:24:01;;;;;;;1.40;1.13;;;5.80;99.90;4.90;98836;;;;582509;246;24086;-79
2023/12/30 04:26:28;;;;;;;1.70;0.63;;;5.70;99.90;4.80;98833;;;;582328;246;24187;-79
2023/12/30 04:28:56;;;;;;;0.70;0.70;;;5.60;99.90;4.70;98830;;;;582272;246;24104;-82
2023/12/30 04:31:24;;;;;;;1.30;1.03;;;5.60;99.90;4.60;98837;;;;581378;244;24081;-83
2023/12/30 04:33:52;;;;;;;5.07;1.30;;;5.50;99.90;4.60;98843;;;;581590;245;24098;-83
2023/12/30 04:36:20;;;;;;;5.63;1.20;;;5.40;99.90;4.50;98850;;;;582350;246;24109;-80
2023/12/30 04:38:48;;;;;;;3.87;1.30;;;5.40;99.90;4.50;98842;;;;577145;246;46189;-79
2023/12/30 04:41:16;;;;;;;2.93;1.00;;;5.40;99.90;4.60;98847;;;;582136;246;24120;-82
2023/12/30 04:43:44;;;;;;;1.23;1.10;;;5.40;99.90;4.50;98843;;;;582580;246;24483;-82
2023/12/30 04:46:12;;;;;;;3.33;0.90;;;5.30;99.90;4.50;98844;;;;582603;246;24103;-81
2023/12/30 04:48:40;;;;;;;1.97;0.90;;;5.30;99.90;4.40;98826;;;;573607;246;24086;-79
2023/12/30 04:51:08;;;;;;;0.67;0.67;;;5.30;99.90;4.40;98842;;;;582160;243;24110;-79
2023/12/30 04:53:36;;;;;;;0.57;0.57;;;5.30;99.90;4.30;98849;;;;573386;246;24125;-79
2023/12/30 04:56:08;;;;;;;5.00;1.10;;;5.20;99.90;4.30;98845;;;;582155;246;24174;-79
2023/12/30 04:58:33;;;;;;;7.57;1.20;;;5.10;99.90;4.20;98846;;;;572556;246;24114;-79
2023/12/30 05:01:00;;;;;;;1.10;1.10;;;5.10;99.90;4.10;98840;;;;582074;246;24078;-79
2023/12/30 05:03:29;;;;;;;2.37;0.93;;;5.00;99.90;4.10;98835;;;;581627;246;24189;-79
2023/12/30 05:05:58;;;;;;;6.20;0.97;;;4.90;99.90;4.00;98847;;;;582286;245;24092;-79
2023/12/30 05:08:30;;;;;;;0.70;0.60;;;4.90;99.90;4.00;98844;;;;582789;242;24184;-79
2023/12/30 05:10:54;;;;;;;5.93;1.33;;;4.80;99.90;3.90;98851;;;;566780;246;35136;-79
2023/12/30 05:13:22;;;;;;;2.70;1.53;;;4.80;99.90;3.90;98858;;;;582358;246;24213;-79
2023/12/30 05:15:51;;;;;;;1.13;0.67;;;4.70;99.90;3.80;98851;;;;582641;246;24096;-79
2023/12/30 05:18:19;;;;;;;1.17;1.07;;;4.70;99.90;3.80;98850;;;;582624;246;24067;-77
2023/12/30 05:20:47;;;;;;;1.50;1.00;;;4.70;99.90;3.80;98852;;;;582645;246;24091;-78
2023/12/30 05:23:15;;;;;;;1.20;1.20;;;4.70;99.90;3.80;98865;;;;577931;246;24093;-79
2023/12/30 05:25:43;;;;;;;0.70;0.70;;;4.70;99.90;3.90;98858;;;;582341;246;24183;-78
2023/12/30 05:28:11;;;;;;;3.33;0.97;;;4.80;99.90;4.00;98872;;;;582002;242;24092;-77
2023/12/30 05:30:40;;;;;;;2.50;0.83;;;4.80;99.90;4.10;98870;;;;581967;246;27386;-78
2023/12/30 05:33:08;;;;;;;1.03;0.97;;;5.00;99.90;4.20;98875;;;;581255;246;24098;-78
2023/12/30 05:35:39;;;;;;;4.10;1.30;;;5.00;99.90;4.30;98885;;;;582021;246;24142;-77
2023/12/30 05:38:04;;;;;;;0.67;0.67;;;5.10;99.90;4.30;98889;;;;572490;246;24102;-77
2023/12/30 05:40:31;;;;;;;3.57;1.90;;;5.20;99.90;4.40;98883;;;;572781;245;24090;-78
2023/12/30 05:42:59;;;;;;;4.43;0.93;;;5.20;99.90;4.30;98895;;;;582055;246;24185;-79
2023/12/30 05:45:28;;;;;;;4.33;2.00;;;5.20;99.90;4.30;98883;;;;577114;246;35222;-78
2023/12/30 05:47:56;;;;;;;5.10;1.03;;;5.20;99.90;4.20;98873;;;;577447;246;25420;-78
2023/12/30 05:50:25;;;;;;;6.20;1.97;;;5.00;99.90;4.10;98866;;;;582144;246;24085;-78
2023/12/30 05:52:52;;;;;;;1.27;1.20;;;5.00;99.90;4.10;98869;;;;581649;245;24164;-78
2023/12/30 05:55:23;;;;;;;0.90;0.90;;;5.00;99.90;4.00;98870;;;;582284;246;24125;-79
2023/12/30 05:57:48;;;;;;;1.93;1.60;;;4.90;99.90;3.90;98868;;;;573217;246;24099;-78
2023/12/30 06:00:19;;;;;;;0.87;0.87;;;4.80;99.90;3.90;98876;;;;582047;246;24091;-78
2023/12/30 06:02:45;;;;;;;1.20;1.10;;;4.70;99.90;3.80;98866;;;;573381;246;24147;-79
2023/12/30 06:05:13;;;;;;;1.40;1.30;;;4.70;99.90;3.80;98871;;;;581692;246;24081;-79
2023/12/30 06:07:41;;;;;;;4.63;1.30;;;4.70;99.90;3.70;98872;;;;577444;246;27381;-79
2023/12/30 06:10:11;;;;;;;1.13;0.97;;;4.60;99.90;3.70;98874;;;;577377;246;24117;-79
2023/12/30 06:12:36;;;;;;;1.70;1.57;;;4.60;99.90;3.60;98867;;;;570976;243;24161;-79
2023/12/30 06:15:04;;;;;;;1.60;1.50;;;4.50;99.90;3.60;98871;;;;582126;246;24106;-78
2023/12/30 06:17:32;;;;;;;4.20;1.20;;;4.50;99.90;3.60;98878;;;;574435;246;24090;-79
2023/12/30 06:20:00;;;;;;;1.90;1.77;;;4.50;99.90;3.60;98886;;;;582726;246;24093;-79
2023/12/30 06:22:28;;;;;;;3.70;1.37;;;4.50;99.90;3.60;98886;;;;582946;246;24103;-79
2023/12/30 06:24:56;;;;;;;2.63;1.30;;;4.50;99.90;3.60;98883;;;;582880;246;24079;-79
2023/12/30 06:27:24;;;;;;;1.20;1.20;;;4.50;99.90;3.60;98898;;;;582343;242;24091;-78
2023/12/30 06:29:52;;;;;;;6.17;2.03;;;4.40;99.90;3.60;98901;;;;582240;242;24312;-78
2023/12/30 06:32:20;;;;;;;1.90;1.27;;;4.50;99.90;3.60;98896;;;;582133;246;24108;-78
2023/12/30 06:34:48;;;;;;;6.87;1.50;;;4.40;99.90;3.60;98891;;;;582023;246;28367;-78
2023/12/30 06:37:16;;;;;;;6.17;1.50;;;4.50;99.90;3.70;98898;;;;581917;245;24101;-78
2023/12/30 06:39:44;;;;;;;1.10;1.10;;;4.50;99.90;3.80;98911;;;;582089;242;24089;-80
2023/12/30 06:42:12;;;;;;;3.90;1.73;;;4.60;99.90;3.80;98918;;;;573154;246;24228;-76
2023/12/30 06:44:41;;;;;;;2.03;1.23;;;4.80;99.90;3.90;98931;;;;582384;246;24096;-77
2023/12/30 06:47:09;;;;;;;5.00;0.93;;;4.70;99.90;4.00;98911;;;;576890;246;24126;-77
2023/12/30 06:49:37;;;;;;;3.73;1.30;;;4.90;99.90;4.00;98923;;;;581890;246;24104;-76
2023/12/30 06:52:06;;;;;;;7.93;1.93;;;4.90;99.90;4.10;98914;;;;571980;246;24194;-78
2023/12/30 06:54:33;;;;;;;6.00;1.60;;;4.90;99.90;4.10;98914;;;;581569;246;24094;-76
2023/12/30 06:57:01;;;;;;;1.77;1.67;;;5.00;99.90;4.10;98926;;;;573046;246;24111;-77
2023/12/30 06:59:29;;;;;;;2.10;1.33;;;5.00;99.90;4.20;98918;;;;581698;246;24222;-77
2023/12/30 07:01:58;;;;;;;2.97;1.90;;;5.00;99.90;4.10;98930;;;;581633;242;24157;-77
2023/12/30 07:04:26;;;;;;;1.53;1.33;;;5.00;99.90;4.10;98937;;;;581728;246;27448;-77
2023/12/30 07:06:54;;;;;;;1.70;1.60;;;4.90;99.90;4.00;98937;;;;581504;246;24201;-76
2023/12/30 07:09:22;;;;;;;2.83;1.43;;;4.90;99.90;4.00;98937;;;;581845;246;24085;-77
2023/12/30 07:11:50;;;;;;;12.20;1.63;;;4.90;99.90;4.00;98950;;;;581578;246;24173;-77
2023/12/30 07:14:18;;;;;;;2.40;1.63;;;4.90;99.90;3.90;98951;;;;581838;246;24084;-78
2023/12/30 07:16:49;;;;;;;3.47;1.37;;;4.80;99.90;3.90;98962;;;;581615;246;24107;-76
2023/12/30 07:19:17;;;;;;;7.97;1.77;;;4.80;99.90;3.90;98962;;;;572035;246;24104;-77
2023/12/30 07:21:44;;;;;;;0.90;0.90;;;4.80;99.90;3.90;98967;;;;581998;243;24138;-79
2023/12/30 07:24:13;;;;;;;1.83;1.60;;;4.80;99.90;4.00;98977;;;;582108;246;24096;-77
2023/12/30 07:26:41;;;;;;;2.03;1.40;;;4.80;99.90;4.00;98978;;;;581827;246;28478;-79
2023/12/30 07:29:09;;;;;;;7.20;1.47;;;4.90;99.90;4.00;98993;;;;582864;245;24116;-79
2023/12/30 07:31:37;;;;;;;2.77;1.53;;;4.90;99.90;4.10;98991;;;;582788;246;24117;-79
2023/12/30 07:34:04;;;;;;;4.77;1.50;;;4.90;99.90;4.10;99002;;;;582799;246;24090;-80
2023/12/30 07:36:33;;;;;;;5.00;1.57;;;5.00;99.90;4.10;98990;;;;582563;246;24098;-81
2023/12/30 07:39:01;;;;;;;11.03;1.50;;;5.00;99.90;4.20;98992;;;;573064;246;26391;-81
2023/12/30 07:41:29;;;;;;;4.60;1.93;;;5.10;99.90;4.30;98996;;;;573475;246;24101;-81
2023/12/30 07:43:57;;;;;;;3.20;1.27;;;5.20;99.90;4.40;99007;;;;581834;243;24108;-78
2023/12/30 07:46:29;;;;;;;1.67;1.23;;;5.20;99.90;4.40;99005;;;;582495;246;24075;-79
2023/12/30 07:48:54;;;;;;;1.03;0.90;;;5.30;99.90;4.50;99001;;;;582938;246;24099;-79
2023/12/30 07:51:23;;;;;;;1.40;1.27;;;5.30;99.90;4.50;98996;;;;582347;246;25436;-79
2023/12/30 07:53:50;;;;;;;6.50;1.67;;;5.40;99.90;4.60;99008;;;;582304;242;24146;-79
2023/12/30 07:56:21;;;;;;;5.60;1.90;;;5.40;99.90;4.60;99009;;;;573579;246;24103;-80
2023/12/30 07:58:46;;;;;;;1.30;1.03;;;5.50;99.90;4.60;99013;;;;572695;246;24101;-80
2023/12/30 08:01:14;;;;;;;4.80;1.37;;;5.50;99.90;4.70;99024;;;;582387;246;24076;-80
2023/12/30 08:03:42;;;;;;;6.60;1.67;;;5.50;99.90;4.70;99026;;;;582452;246;24146;-79
2023/12/30 08:06:10;;;;;;;2.83;1.87;;;5.60;99.90;4.80;99018;;;;582235;246;24093;-80
2023/12/30 08:08:38;;;;;;;7.00;1.73;;;5.60;99.90;4.80;99023;;;;581261;245;24114;-80
2023/12/30 08:11:07;;;;;;;9.13;2.20;;;5.70;99.90;4.80;99041;;;;581692;246;24105;-80
2023/12/30 08:13:35;;;;;;;2.83;1.90;;;5.70;99.90;4.90;99037;;;;581819;246;24081;-80
2023/12/30 08:16:03;;;;;;;4.67;1.83;;;5.70;99.90;4.90;99050;;;;581735;246;24180;-80
2023/12/30 08:18:31;;;;;;;8.13;1.50;;;5.80;99.90;5.00;99042;;;;582117;246;24104;-80
2023/12/30 08:20:59;;;;;;;3.83;1.90;;;5.80;99.90;5.00;99044;;;;581607;246;24092;-80
2023/12/30 08:23:27;;;;;;;5.07;2.13;;;5.80;99.90;5.00;99047;;;;577018;242;35232;-80
2023/12/30 08:25:55;;;;;;;7.20;1.83;;;5.80;99.90;5.00;99041;;;;582100;246;26445;-81
2023/12/30 08:28:24;;;;;;;4.93;2.10;;;5.90;99.90;5.00;99057;;;;577188;246;24148;-80
2023/12/30 08:30:53;;;;;;;2.67;1.57;;;5.90;99.90;5.00;99044;;;;581926;246;24116;-80
2023/12/30 08:33:20;;;;;;;2.10;1.40;;;5.90;99.90;5.00;99061;;;;582248;246;24116;-80
2023/12/30 08:35:49;;;;;;;5.33;2.10;;;5.90;99.90;5.10;99055;;;;582367;246;24112;-81
2023/12/30 08:38:19;;;;;;;1.63;1.47;;;6.00;99.90;5.10;99050;;;;581964;246;24155;-80
2023/12/30 08:40:46;;;;;;;6.35;2.85;;;6.00;99.90;5.20;99048;;;;578011;245;46283;-81
2023/12/30 08:43:15;;;;;;;6.53;2.67;;;6.10;99.90;5.20;99054;;;;583370;242;24077;-80
2023/12/30 08:45:43;;;;;;;2.17;1.93;;;6.00;99.90;5.30;99063;;;;582935;246;24160;-79
2023/12/30 08:48:12;;;;;;;9.93;2.60;;;6.20;99.90;5.30;99063;;;;583325;246;24094;-80
2023/12/30 08:50:40;;;;;;;3.33;1.50;;;6.10;99.90;5.40;99061;;;;578454;246;24095;-80
2023/12/30 08:53:08;;;;;;;4.20;2.30;;;6.20;99.90;5.40;99065;;;;582863;242;24081;-79
2023/12/30 08:55:36;;;;;;;5.27;2.20;;;6.20;99.90;5.40;99076;;;;582777;246;24097;-80
2023/12/30 08:58:04;;;;;;;6.57;2.40;;;6.30;99.90;5.40;99084;;;;578018;245;24079;-80
2023/12/30 09:00:32;;;;;;;4.87;1.80;;;6.30;99.90;5.40;99088;;;;581894;246;24144;-80
2023/12/30 09:03:03;;;;;;;13.90;3.20;;;6.30;99.90;5.40;99094;;;;582411;242;24090;-81
2023/12/30 09:05:28;;;;;;;8.60;3.23;;;6.20;99.90;5.40;99093;;;;576593;243;35327;-81
2023/12/30 09:07:56;;;;;;;7.10;2.87;;;6.20;99.90;5.40;99096;;;;582456;246;24133;-81
2023/12/30 09:10:24;;;;;;;7.87;2.90;;;6.20;99.90;5.40;99098;;;;581973;246;24116;-81
2023/12/30 09:12:52;;;;;;;6.07;2.00;;;6.20;99.90;5.40;99103;;;;581572;246;24117;-80
2023/12/30 09:15:21;;;;;;;8.63;2.13;;;6.20;99.90;5.40;99100;;;;581959;246;24122;-80
2023/12/30 09:17:49;;;;;;;3.30;1.50;;;6.20;99.90;5.40;99111;;;;581732;246;24156;-81
2023/12/30 09:20:17;;;;;;;5.03;1.43;;;6.20;99.90;5.40;99101;;;;582159;246;24107;-79
2023/12/30 09:22:45;;;;;;;1.30;1.10;;;6.20;99.90;5.30;99105;;;;582265;246;26375;-79
2023/12/30 09:25:14;;;;;;;6.73;2.00;;;6.10;99.90;5.30;99113;;;;577117;246;35178;-80
2023/12/30 09:27:42;;;;;;;2.07;1.87;;;6.10;99.90;5.20;99117;;;;581771;242;24109;-84
2023/12/30 09:30:13;;;;;;;1.40;1.17;;;6.10;99.90;5.10;99103;;;;582144;246;24098;-79
2023/12/30 09:32:38;;;;;;;2.53;1.10;;;6.00;99.90;5.10;99104;;;;572676;246;24114;-79
2023/12/30 09:35:06;;;;;;;0.70;0.70;;;5.90;99.90;5.00;99118;;;;582109;246;24202;-79
2023/12/30 09:37:34;;;;;;;5.53;0.80;;;5.90;99.90;5.00;99112;;;;571675;246;24109;-79
2023/12/30 09:40:01;;;;;;;3.27;1.60;;;5.80;99.90;5.00;99126;;;;576717;246;35285;-78
2023/12/30 09:42:29;;;;;;;2.07;1.60;;;5.80;99.90;4.90;99126;;;;581378;245;24105;-79
2023/12/30 09:44:58;;;;;;;2.80;1.30;;;5.80;99.90;4.90;99123;;;;572537;246;24104;-80
2023/12/30 09:47:25;;;;;;;1.57;1.03;;;5.80;99.90;4.90;99122;;;;572525;245;24090;-79
2023/12/30 09:49:55;;;;;;;1.80;1.20;;;5.80;99.90;5.00;99124;;;;582093;246;24090;-79
2023/12/30 09:52:22;;;;;;;1.43;1.20;;;5.80;99.90;5.00;99122;;;;583286;245;24090;-80
2023/12/30 09:54:50;;;;;;;2.60;1.67;;;5.90;99.90;5.10;99123;;;;583322;246;24175;-80
2023/12/30 09:57:17;;;;;;;3.13;1.40;;;5.90;99.90;5.10;99136;;;;583038;246;24168;-80
2023/12/30 09:59:48;;;;;;;2.67;1.20;;;6.00;99.90;5.20;99132;;;;582545;246;24155;-81
2023/12/30 10:02:17;;;;;;;0.77;0.77;;;6.10;99.90;5.30;99142;;;;573867;246;24084;-82
2023/12/30 10:04:45;;;;;;;0.90;0.87;;;6.10;99.90;5.40;99132;;;;582673;246;24126;-81
2023/12/30 10:07:14;;;;;;;4.83;2.10;;;6.30;99.90;5.50;99137;;;;573128;246;35270;-81
2023/12/30 10:09:41;;;;;;;3.03;1.50;;;6.30;99.90;5.60;99140;;;;572741;246;24491;-81
2023/12/30 10:12:10;;;;;;;2.43;1.30;;;6.40;99.90;5.70;99140;;;;581918;246;25144;-81
2023/12/30 10:14:37;;;;;;;2.80;1.57;;;6.50;99.90;5.80;99136;;;;581335;246;24083;-82
2023/12/30 10:17:05;;;;;;;1.53;1.23;;;6.60;99.90;5.90;99140;;;;582353;246;24152;-80
2023/12/30 10:19:34;;;;;;;2.10;1.87;;;6.90;99.90;6.10;99138;;;;582828;246;24079;-82
2023/12/30 10:22:02;;;;;;;3.20;1.57;;;6.90;99.90;6.20;99143;;;;573906;246;24277;-81
2023/12/30 10:24:34;;;;;;;1.17;1.00;;;7.30;99.90;6.40;99138;;;;573665;246;24123;-79
2023/12/30 10:27:03;;;;;;;1.67;0.87;;;7.30;99.90;6.50;99145;;;;572202;246;27402;-80
2023/12/30 10:29:26;;;;;;;1.10;1.00;;;7.40;99.90;6.40;99163;;;;581906;243;24082;-81
2023/12/30 10:32:04;;;;;;;1.67;1.57;;;7.30;99.90;6.30;99174;;;;582315;246;24091;-81
2023/12/30 10:34:34;;;;;;;1.80;1.30;;;7.20;99.90;6.30;99183;;;;581944;246;24100;-79
2023/12/30 10:36:59;;;;;;;1.50;1.37;;;7.10;99.90;6.20;99179;;;;576781;246;24143;-81
2023/12/30 10:39:27;;;;;;;2.77;1.47;;;7.10;99.90;6.10;99184;;;;572975;246;24323;-81
2023/12/30 10:41:57;;;;;;;0.73;0.73;;;7.00;99.90;6.10;99193;;;;572474;246;24110;-81
2023/12/30 10:44:22;;;;;;;2.80;1.67;;;6.90;99.90;5.90;99197;;;;581589;242;24140;-81
2023/12/30 10:46:50;;;;;;;2.33;1.40;;;6.80;99.90;5.90;99195;;;;581331;243;24091;-82
2023/12/30 10:49:18;;;;;;;2.43;0.93;;;6.70;99.90;5.80;99190;;;;577048;246;24082;-82
2023/12/30 10:51:46;;;;;;;0.90;0.90;;;6.70;99.90;5.80;99197;;;;573374;246;24192;-82
2023/12/30 10:54:15;;;;;;;2.40;1.30;;;6.60;99.90;5.80;99197;;;;573423;246;24102;-82
2023/12/30 10:56:46;;;;;;;1.60;1.30;;;6.60;99.90;5.80;99203;;;;573289;246;24131;-82
2023/12/30 10:59:14;;;;;;;2.07;1.67;;;6.60;99.90;5.80;99209;;;;572919;246;24139;-82
2023/12/30 11:01:45;;;;;;;2.80;1.93;;;6.70;99.90;5.80;99202;;;;573406;246;25174;-82
2023/12/30 11:04:14;;;;;;;1.80;1.63;;;6.70;99.90;5.80;99222;;;;572869;246;24096;-82
2023/12/30 11:06:52;;;;;;;1.73;1.40;;;6.70;99.90;5.90;99222;;;;582878;242;24082;-80
2023/12/30 11:09:29;;;;;;;3.37;1.33;;;6.70;99.90;5.90;99224;;;;575135;246;24153;-81
2023/12/30 11:11:54;;;;;;;1.37;1.23;;;6.70;99.90;5.80;99221;;;;573569;246;24109;-82
2023/12/30 11:14:23;;;;;;;0.70;0.70;;;6.70;99.90;5.80;99223;;;;583118;246;24109;-82
2023/12/30 11:16:51;;;;;;;0.77;0.77;;;6.70;99.90;5.80;99217;;;;583668;241;24110;-81
2023/12/30 11:19:30;;;;;;;1.43;0.83;;;6.70;99.90;5.70;99232;;;;583109;246;24328;-81
2023/12/30 11:21:57;;;;;;;0.40;0.40;;;6.60;99.90;5.50;99219;;;;572966;246;24161;-82
2023/12/30 11:24:25;;;;;;;0.77;0.60;;;6.50;99.90;5.30;99230;;;;577549;246;24093;-83
2023/12/30 11:26:53;;;;;;;1.37;0.93;;;6.20;99.90;5.20;99216;;;;573195;246;24147;-82
2023/12/30 11:29:21;;;;;;;0.93;0.93;;;6.10;99.90;5.10;99230;;;;582202;246;24127;-82
2023/12/30 11:31:52;;;;;;;0.77;0.60;;;6.00;99.90;5.00;99230;;;;573150;245;24090;-82
2023/12/30 11:34:17;;;;;;;1.33;1.10;;;5.90;99.90;5.00;99220;;;;572634;246;24091;-82
2023/12/30 11:36:49;;;;;;;2.17;0.60;;;5.90;99.90;5.10;99224;;;;581838;246;24097;-81
2023/12/30 11:39:12;;;;;;;1.63;1.03;;;5.90;99.90;5.20;99223;;;;581378;246;24111;-82